Dredge Wheeler — AEQZ — position and weather

sailwx.info

Track history (hours):
 
Tides and Currents Weather Stations Pressure Air Temp Water Temp Dewpoint Dewpoint Depression Visibility Wind Speed Wind Dir Waves Ship Positions

Dredge Wheeler

Last reported at 2017-Oct-05 13:04 UTC. Time now 2017-Oct-18 00:18 UTC.
Position N 29°38' W 093°19'.
Warning: this ship's position is 12 days out of date.

Length 124 m; draft 6 m.

Type: Dredging. MMSI: 366982000.

Date/timePositionNaut miles runAvg speedWind from/ knotsBaromVisibWave heightAir tempDewpointWater temp
2017-Oct-05 13:04N 29°38' W 093°19'110.9
2017-Oct-05 13:00N 29°39' W 093°19'7 5.5
2017-Oct-05 11:44N 29°45' W 093°21'0 0.1
2017-Oct-05 11:30N 29°45' W 093°21'8 5.2
2017-Oct-05 10:00N 29°38' W 093°19'7 0.9
2017-Oct-05 02:26N 29°44' W 093°20'0 0.1
2017-Oct-04 22:56N 29°45' W 093°20'1 3.1
2017-Oct-04 22:30N 29°46' W 093°21'1 0.1
2017-Oct-04 13:06N 29°45' W 093°21'0 0.0
2017-Oct-03 00:19N 29°45' W 093°21'0 0.0
2017-Oct-02 20:50N 29°45' W 093°21'1 0.2
2017-Oct-02 17:29N 29°46' W 093°21'1 0.1
2017-Oct-02 12:39N 29°45' W 093°21'1 0.1
2017-Oct-02 05:30N 29°45' W 093°20'3 0.2
2017-Oct-01 14:36N 29°41' W 093°20'2 2.6
2017-Oct-01 13:52N 29°43' W 093°20'1 2.8
2017-Oct-01 13:29N 29°44' W 093°20'1 1.6
2017-Oct-01 12:47N 29°43' W 093°20'1 3.0
2017-Oct-01 12:20N 29°42' W 093°20'1 0.5
2017-Oct-01 10:00N 29°43' W 093°20'1 3.0
2017-Oct-01 09:30N 29°45' W 093°20'3 2.9
2017-Oct-01 08:24N 29°41' W 093°20'1 1.4
2017-Oct-01 08:00N 29°42' W 093°20'1 2.9
2017-Oct-01 07:30N 29°43' W 093°20'1 2.1
2017-Oct-01 06:59N 29°45' W 093°20'2 2.9
2017-Oct-01 06:17N 29°43' W 093°20'1 3.0
2017-Oct-01 05:56N 29°41' W 093°20'1 1.7
2017-Oct-01 05:30N 29°42' W 093°20'1 2.8
2017-Oct-01 05:00N 29°44' W 093°20'1 1.3
2017-Oct-01 04:26N 29°44' W 093°20'1 3.0
2017-Oct-01 03:58N 29°43' W 093°20'2 3.1
2017-Oct-01 03:22N 29°41' W 093°20'1 2.1
2017-Oct-01 02:57N 29°42' W 093°20'1 0.0
2017-Sep-30 01:21N 29°43' W 093°20'1 3.1
2017-Sep-30 01:00N 29°44' W 093°20'0 0.0
2017-Sep-29 21:12N 29°44' W 093°20'1 4.6
2017-Sep-29 21:00N 29°45' W 093°21'1 1.6
2017-Sep-29 20:30N 29°46' W 093°21'9 0.6
2017-Sep-29 05:13N 29°37' W 093°19'0 0.3
2017-Sep-29 04:45N 29°37' W 093°19'5 1.5
2017-Sep-29 01:17N 29°42' W 093°20'1 3.4
2017-Sep-29 00:58N 29°43' W 093°20'7 3.2
2017-Sep-28 22:56N 29°37' W 093°19'5 8.4
2017-Sep-28 22:21N 29°42' W 093°20'3 7.5
2017-Sep-28 21:59N 29°44' W 093°20'3 0.4
2017-Sep-28 14:28N 29°42' W 093°20'1 0.4
2017-Sep-28 10:50N 29°43' W 093°20'1 2.8
2017-Sep-28 10:28N 29°44' W 093°20'0 0.2
2017-Sep-28 09:58N 29°44' W 093°20'2 0.5
2017-Sep-28 06:57N 29°42' W 093°20'1 2.7
2017-Sep-28 06:28N 29°44' W 093°20'1 2.2
2017-Sep-28 06:00N 29°45' W 093°20'2 0.6
2017-Sep-28 03:37N 29°43' W 093°20'0 3.3
2017-Sep-28 03:30N 29°43' W 093°20'1 0.1
2017-Sep-27 17:13N 29°44' W 093°20'2 0.8
2017-Sep-27 14:13N 29°42' W 093°20'3 2.5
2017-Sep-27 13:10N 29°44' W 093°20'0 0.1
2017-Sep-27 10:02N 29°44' W 093°20'0 2.6
2017-Sep-27 10:00N 29°44' W 093°20'0 0.0
2017-Sep-27 01:31N 29°44' W 093°20'1 3.0
2017-Sep-27 01:19N 29°45' W 093°21'1 3.0
2017-Sep-27 01:00N 29°46' W 093°21'1 1.6
2017-Sep-27 00:30N 29°45' W 093°21'1 0.3
2017-Sep-26 21:25N 29°44' W 093°20'1 2.9
2017-Sep-26 20:56N 29°46' W 093°21'3 0.4
2017-Sep-26 14:56N 29°43' W 093°20'1 2.7
2017-Sep-26 14:27N 29°42' W 093°20'2 1.1
2017-Sep-26 13:08N 29°44' W 093°20'0 2.7
2017-Sep-26 13:00N 29°44' W 093°20'1 2.1
2017-Sep-26 12:30N 29°45' W 093°20'1 1.3
2017-Sep-26 12:00N 29°44' W 093°20'1 1.9
2017-Sep-26 11:30N 29°45' W 093°21'1 0.9
2017-Sep-26 10:58N 29°45' W 093°20'0 0.7
2017-Sep-26 10:29N 29°44' W 093°20'1 0.4
2017-Sep-26 08:48N 29°44' W 093°20'1 0.2
2017-Sep-26 03:59N 29°45' W 093°20'1 2.5
2017-Sep-26 03:28N 29°46' W 093°21'1 0.5
2017-Sep-26 01:26N 29°45' W 093°20'1 1.6
2017-Sep-26 00:59N 29°46' W 093°21'1 1.9
2017-Sep-26 00:30N 29°47' W 093°21'0 0.1
2017-Sep-26 00:00N 29°47' W 093°21'0 0.2
2017-Sep-25 23:28N 29°46' W 093°21'0 0.1
2017-Sep-25 23:00N 29°46' W 093°21'0 0.2
2017-Sep-25 22:30N 29°46' W 093°21'0 0.0
2017-Sep-25 13:52N 29°46' W 093°21'0 0.0
2017-Sep-25 13:11N 29°46' W 093°21'  
Track history (hours):
 
Tides and Currents Weather Stations Pressure Air Temp Water Temp Dewpoint Dewpoint Depression Visibility Wind Speed Wind Dir Waves Ship Positions

Dredge Wheeler

Last reported at 2017-Oct-05 13:04 UTC. Time now 2017-Oct-18 00:18 UTC.
Position N 29°38' W 093°19'.
Warning: this ship's position is 12 days out of date.

Length 124 m; draft 6 m.

Type: Dredging. MMSI: 366982000.

Date/timePositionNaut miles runAvg speedWind from/ knotsBaromVisibWave heightAir tempDewpointWater temp
2017-Oct-05 13:04N 29°38' W 093°19'110.9
2017-Oct-05 13:00N 29°39' W 093°19'7 5.5
2017-Oct-05 11:44N 29°45' W 093°21'0 0.1
2017-Oct-05 11:30N 29°45' W 093°21'8 5.2
2017-Oct-05 10:00N 29°38' W 093°19'7 0.9
2017-Oct-05 02:26N 29°44' W 093°20'0 0.1
2017-Oct-04 22:56N 29°45' W 093°20'1 3.1
2017-Oct-04 22:30N 29°46' W 093°21'1 0.1
2017-Oct-04 13:06N 29°45' W 093°21'0 0.0
2017-Oct-03 00:19N 29°45' W 093°21'0 0.0
2017-Oct-02 20:50N 29°45' W 093°21'1 0.2
2017-Oct-02 17:29N 29°46' W 093°21'1 0.1
2017-Oct-02 12:39N 29°45' W 093°21'1 0.1
2017-Oct-02 05:30N 29°45' W 093°20'3 0.2
2017-Oct-01 14:36N 29°41' W 093°20'2 2.6
2017-Oct-01 13:52N 29°43' W 093°20'1 2.8
2017-Oct-01 13:29N 29°44' W 093°20'1 1.6
2017-Oct-01 12:47N 29°43' W 093°20'1 3.0
2017-Oct-01 12:20N 29°42' W 093°20'1 0.5
2017-Oct-01 10:00N 29°43' W 093°20'1 3.0
2017-Oct-01 09:30N 29°45' W 093°20'3 2.9
2017-Oct-01 08:24N 29°41' W 093°20'1 1.4
2017-Oct-01 08:00N 29°42' W 093°20'1 2.9
2017-Oct-01 07:30N 29°43' W 093°20'1 2.1
2017-Oct-01 06:59N 29°45' W 093°20'2 2.9
2017-Oct-01 06:17N 29°43' W 093°20'1 3.0
2017-Oct-01 05:56N 29°41' W 093°20'1 1.7
2017-Oct-01 05:30N 29°42' W 093°20'1 2.8
2017-Oct-01 05:00N 29°44' W 093°20'1 1.3
2017-Oct-01 04:26N 29°44' W 093°20'1 3.0
2017-Oct-01 03:58N 29°43' W 093°20'2 3.1
2017-Oct-01 03:22N 29°41' W 093°20'1 2.1
2017-Oct-01 02:57N 29°42' W 093°20'1 0.0
2017-Sep-30 01:21N 29°43' W 093°20'1 3.1
2017-Sep-30 01:00N 29°44' W 093°20'0 0.0
2017-Sep-29 21:12N 29°44' W 093°20'1 4.6
2017-Sep-29 21:00N 29°45' W 093°21'1 1.6
2017-Sep-29 20:30N 29°46' W 093°21'9 0.6
2017-Sep-29 05:13N 29°37' W 093°19'0 0.3
2017-Sep-29 04:45N 29°37' W 093°19'5 1.5
2017-Sep-29 01:17N 29°42' W 093°20'1 3.4
2017-Sep-29 00:58N 29°43' W 093°20'7 3.2
2017-Sep-28 22:56N 29°37' W 093°19'5 8.4
2017-Sep-28 22:21N 29°42' W 093°20'3 7.5
2017-Sep-28 21:59N 29°44' W 093°20'3 0.4
2017-Sep-28 14:28N 29°42' W 093°20'1 0.4
2017-Sep-28 10:50N 29°43' W 093°20'1 2.8
2017-Sep-28 10:28N 29°44' W 093°20'0 0.2
2017-Sep-28 09:58N 29°44' W 093°20'2 0.5
2017-Sep-28 06:57N 29°42' W 093°20'1 2.7
2017-Sep-28 06:28N 29°44' W 093°20'1 2.2
2017-Sep-28 06:00N 29°45' W 093°20'2 0.6
2017-Sep-28 03:37N 29°43' W 093°20'0 3.3
2017-Sep-28 03:30N 29°43' W 093°20'1 0.1
2017-Sep-27 17:13N 29°44' W 093°20'2 0.8
2017-Sep-27 14:13N 29°42' W 093°20'3 2.5
2017-Sep-27 13:10N 29°44' W 093°20'0 0.1
2017-Sep-27 10:02N 29°44' W 093°20'0 2.6
2017-Sep-27 10:00N 29°44' W 093°20'0 0.0
2017-Sep-27 01:31N 29°44' W 093°20'1 3.0
2017-Sep-27 01:19N 29°45' W 093°21'1 3.0
2017-Sep-27 01:00N 29°46' W 093°21'1 1.6
2017-Sep-27 00:30N 29°45' W 093°21'1 0.3
2017-Sep-26 21:25N 29°44' W 093°20'1 2.9
2017-Sep-26 20:56N 29°46' W 093°21'3 0.4
2017-Sep-26 14:56N 29°43' W 093°20'1 2.7
2017-Sep-26 14:27N 29°42' W 093°20'2 1.1
2017-Sep-26 13:08N 29°44' W 093°20'0 2.7
2017-Sep-26 13:00N 29°44' W 093°20'1 2.1
2017-Sep-26 12:30N 29°45' W 093°20'1 1.3
2017-Sep-26 12:00N 29°44' W 093°20'1 1.9
2017-Sep-26 11:30N 29°45' W 093°21'1 0.9
2017-Sep-26 10:58N 29°45' W 093°20'0 0.7
2017-Sep-26 10:29N 29°44' W 093°20'1 0.4
2017-Sep-26 08:48N 29°44' W 093°20'1 0.2
2017-Sep-26 03:59N 29°45' W 093°20'1 2.5
2017-Sep-26 03:28N 29°46' W 093°21'1 0.5
2017-Sep-26 01:26N 29°45' W 093°20'1 1.6
2017-Sep-26 00:59N 29°46' W 093°21'1 1.9
2017-Sep-26 00:30N 29°47' W 093°21'0 0.1
2017-Sep-26 00:00N 29°47' W 093°21'0 0.2
2017-Sep-25 23:28N 29°46' W 093°21'0 0.1
2017-Sep-25 23:00N 29°46' W 093°21'0 0.2
2017-Sep-25 22:30N 29°46' W 093°21'0 0.0
2017-Sep-25 13:52N 29°46' W 093°21'0 0.0
2017-Sep-25 13:11N 29°46' W 093°21'  

Dump ship's entire track history